createdAt,value
2022-12-12T00:01:31.350Z,5.25
2022-12-12T00:04:00.044Z,5.30
2022-12-12T00:06:28.531Z,5.75
2022-12-12T00:08:56.691Z,7.17
2022-12-12T00:11:25.441Z,7.10
2022-12-12T00:13:54.065Z,6.95
2022-12-12T00:16:23.768Z,12.68
2022-12-12T00:18:52.089Z,6.20
2022-12-12T00:21:23.980Z,5.87
2022-12-12T00:23:52.417Z,5.60
2022-12-12T00:26:28.046Z,4.33
2022-12-12T00:28:57.376Z,4.67
2022-12-12T00:31:26.221Z,5.15
2022-12-12T00:33:53.975Z,5.10
2022-12-12T00:36:27.674Z,5.45
2022-12-12T00:38:56.194Z,5.15
2022-12-12T00:41:24.496Z,5.55
2022-12-12T00:43:52.047Z,5.87
2022-12-12T00:46:23.713Z,5.03
2022-12-12T00:48:55.553Z,5.00
2022-12-12T00:51:25.428Z,4.80
2022-12-12T00:53:53.674Z,4.62
2022-12-12T00:56:22.807Z,5.10
2022-12-12T00:58:51.918Z,4.83
2022-12-12T01:01:24.538Z,5.30
2022-12-12T01:03:53.572Z,5.33
2022-12-12T01:06:22.848Z,4.58
2022-12-12T01:08:50.885Z,4.12
2022-12-12T01:11:19.406Z,4.45
2022-12-12T01:13:48.775Z,5.03
2022-12-12T01:16:16.824Z,4.87
2022-12-12T01:18:44.523Z,5.08
2022-12-12T01:21:15.576Z,4.45
2022-12-12T01:23:43.492Z,4.70
2022-12-12T01:26:15.838Z,4.62
2022-12-12T01:28:44.860Z,5.03
2022-12-12T01:31:13.287Z,4.78
2022-12-12T01:33:43.474Z,4.65
2022-12-12T01:36:16.859Z,4.80
2022-12-12T01:38:50.606Z,5.22
2022-12-12T01:43:47.814Z,4.97
2022-12-12T01:46:45.266Z,5.58
2022-12-12T01:49:27.188Z,5.85
2022-12-12T01:51:59.380Z,5.47
2022-12-12T01:54:31.765Z,5.92
2022-12-12T01:57:04.334Z,5.47
2022-12-12T01:59:38.950Z,5.28
2022-12-12T02:02:09.011Z,5.25
2022-12-12T02:04:41.582Z,5.45
2022-12-12T02:07:09.839Z,9.85
2022-12-12T02:09:38.777Z,7.40
2022-12-12T02:12:06.828Z,6.85
2022-12-12T02:14:42.304Z,26.27
2022-12-12T02:17:48.389Z,13.43
2022-12-12T02:20:51.866Z,9.70
2022-12-12T02:23:57.220Z,5.28
2022-12-12T02:26:39.728Z,5.35
2022-12-12T02:29:28.199Z,5.15
2022-12-12T02:32:23.376Z,5.10
2022-12-12T02:37:50.090Z,5.78
2022-12-12T02:40:40.840Z,5.10
2022-12-12T02:43:38.025Z,5.22
2022-12-12T02:46:23.077Z,5.33
2022-12-12T02:49:08.283Z,5.40
2022-12-12T02:51:38.260Z,5.40
2022-12-12T02:54:09.930Z,5.00
2022-12-12T02:56:48.368Z,4.80
2022-12-12T02:59:24.041Z,4.62
2022-12-12T03:02:19.729Z,5.15
2022-12-12T03:05:29.330Z,5.80
2022-12-12T03:08:31.510Z,6.05
2022-12-12T03:11:12.839Z,5.45
2022-12-12T03:13:56.873Z,5.95
2022-12-12T03:16:51.261Z,6.22
2022-12-12T03:19:35.603Z,6.37
2022-12-12T03:22:30.417Z,6.05
2022-12-12T03:25:09.511Z,5.40
2022-12-12T03:27:42.556Z,5.62
2022-12-12T03:30:15.127Z,6.10
2022-12-12T03:33:05.762Z,5.97
2022-12-12T03:35:41.658Z,6.15
2022-12-12T03:38:28.773Z,6.15
2022-12-12T03:41:08.797Z,5.83
2022-12-12T03:43:50.303Z,5.83
2022-12-12T03:46:26.602Z,5.45
2022-12-12T03:49:09.820Z,5.95
2022-12-12T03:51:44.065Z,6.28
2022-12-12T03:54:22.337Z,5.70
2022-12-12T03:57:01.012Z,5.70
2022-12-12T03:59:42.765Z,6.20
2022-12-12T04:02:34.444Z,7.62
2022-12-12T04:05:31.994Z,7.10
2022-12-12T04:08:12.905Z,5.97
2022-12-12T04:11:04.458Z,5.20
2022-12-12T04:13:43.540Z,5.00
2022-12-12T04:16:18.313Z,5.58
2022-12-12T04:19:09.612Z,5.37
2022-12-12T04:22:07.628Z,5.85
2022-12-12T04:24:53.133Z,6.05
2022-12-12T04:27:28.644Z,5.83
2022-12-12T04:30:06.787Z,6.03
2022-12-12T04:32:56.685Z,6.25
2022-12-12T04:35:31.933Z,7.40
2022-12-12T04:38:07.735Z,8.80
2022-12-12T04:40:40.485Z,8.55
2022-12-12T04:43:33.062Z,7.87
2022-12-12T04:46:06.190Z,7.72
2022-12-12T04:48:53.558Z,6.53
2022-12-12T04:51:35.721Z,8.73
2022-12-12T04:54:19.759Z,7.45
2022-12-12T04:56:52.318Z,6.20
2022-12-12T04:59:20.417Z,6.17
2022-12-12T05:01:59.446Z,6.30
2022-12-12T05:04:51.115Z,5.75
2022-12-12T05:07:40.244Z,6.67
2022-12-12T05:10:15.406Z,6.87
2022-12-12T05:12:49.680Z,6.10
2022-12-12T05:15:20.311Z,8.15
2022-12-12T05:18:02.203Z,9.28
2022-12-12T05:20:30.257Z,7.65
2022-12-12T05:22:57.943Z,9.88
2022-12-12T05:25:25.611Z,9.28
2022-12-12T05:27:52.941Z,9.90
2022-12-12T05:30:21.734Z,8.65
2022-12-12T05:32:50.154Z,6.72
2022-12-12T05:35:18.235Z,6.90
2022-12-12T05:37:51.475Z,7.30
2022-12-12T05:40:15.603Z,6.78
2022-12-12T05:42:43.509Z,8.55
2022-12-12T05:45:13.666Z,10.45
2022-12-12T05:47:42.043Z,12.43
2022-12-12T05:50:10.112Z,9.40
2022-12-12T05:52:37.881Z,9.05
2022-12-12T05:55:07.006Z,6.85
2022-12-12T05:57:34.538Z,7.47
2022-12-12T06:00:04.591Z,6.60
2022-12-12T06:02:32.688Z,6.37
2022-12-12T06:05:00.799Z,8.28
2022-12-12T06:07:28.485Z,7.37
2022-12-12T06:09:56.072Z,7.42
2022-12-12T06:12:23.666Z,9.73
2022-12-12T06:14:51.818Z,11.70
2022-12-12T06:17:19.441Z,11.93
2022-12-12T06:19:47.065Z,9.28
2022-12-12T06:22:15.061Z,9.50
2022-12-12T06:24:42.911Z,8.95
2022-12-12T06:27:10.768Z,9.18
2022-12-12T06:29:38.381Z,8.95
2022-12-12T06:32:05.997Z,11.38
2022-12-12T06:34:33.742Z,13.05
2022-12-12T06:37:01.371Z,14.53
2022-12-12T06:39:29.189Z,12.82
2022-12-12T06:41:57.026Z,11.03
2022-12-12T06:44:26.116Z,10.20
2022-12-12T06:46:54.342Z,11.10
2022-12-12T06:49:22.004Z,11.10
2022-12-12T06:51:49.768Z,12.93
2022-12-12T06:54:19.054Z,17.37
2022-12-12T06:56:48.682Z,15.10
2022-12-12T06:59:17.267Z,13.25
2022-12-12T07:01:45.825Z,12.75
2022-12-12T07:04:14.948Z,9.38
2022-12-12T07:06:42.695Z,8.50
2022-12-12T07:09:11.500Z,7.83
2022-12-12T07:11:41.082Z,7.72
2022-12-12T07:14:09.762Z,8.70
2022-12-12T07:16:37.718Z,8.35
2022-12-12T07:19:05.243Z,8.28
2022-12-12T07:21:32.829Z,8.28
2022-12-12T07:24:01.940Z,9.13
2022-12-12T07:26:29.666Z,9.55
2022-12-12T07:28:57.441Z,9.23
2022-12-12T07:31:26.195Z,10.72
2022-12-12T07:33:54.420Z,9.18
2022-12-12T07:36:22.399Z,9.30
2022-12-12T07:38:50.363Z,9.10
2022-12-12T07:41:20.301Z,10.13
2022-12-12T07:43:49.304Z,10.65
2022-12-12T07:46:24.353Z,10.48
2022-12-12T07:48:53.378Z,12.00
2022-12-12T07:51:22.900Z,11.35
2022-12-12T07:53:51.807Z,11.30
2022-12-12T07:56:20.149Z,9.78
2022-12-12T07:58:48.276Z,10.65
2022-12-12T08:01:23.765Z,10.40
2022-12-12T08:03:52.495Z,11.15
2022-12-12T08:06:22.735Z,11.08
2022-12-12T08:08:52.358Z,10.32
2022-12-12T08:11:23.423Z,11.22
2022-12-12T08:13:52.437Z,11.28
2022-12-12T08:16:24.217Z,12.05
2022-12-12T08:18:57.482Z,11.30
2022-12-12T08:21:27.406Z,11.20
2022-12-12T08:24:00.841Z,16.07
2022-12-12T08:26:30.335Z,10.72
2022-12-12T08:28:59.435Z,11.80
2022-12-12T08:31:27.618Z,12.80
2022-12-12T08:33:55.859Z,14.63
2022-12-12T08:36:30.206Z,12.90
2022-12-12T08:39:08.488Z,12.78
2022-12-12T08:41:39.328Z,12.63
2022-12-12T08:44:09.609Z,13.80
2022-12-12T08:46:37.939Z,15.05
2022-12-12T08:49:05.642Z,16.12
2022-12-12T08:51:33.883Z,13.35
2022-12-12T08:54:02.804Z,16.42
2022-12-12T08:56:30.564Z,12.78
2022-12-12T08:58:59.044Z,12.80
2022-12-12T09:01:27.577Z,12.05
2022-12-12T09:03:56.941Z,13.60
2022-12-12T09:06:26.215Z,27.22
2022-12-12T09:08:57.028Z,26.05
2022-12-12T09:11:25.424Z,11.35
2022-12-12T09:13:53.855Z,10.40
2022-12-12T09:16:22.775Z,11.08
2022-12-12T09:18:50.681Z,11.30
2022-12-12T09:21:18.542Z,11.00
2022-12-12T09:23:48.406Z,10.58
2022-12-12T09:26:17.441Z,10.45
2022-12-12T09:28:45.225Z,10.80
2022-12-12T09:31:13.790Z,10.48
2022-12-12T09:33:42.663Z,10.63
2022-12-12T09:36:12.586Z,10.50
2022-12-12T09:38:41.393Z,10.20
2022-12-12T09:41:26.592Z,10.60
2022-12-12T09:44:10.285Z,10.68
2022-12-12T09:46:47.825Z,11.48
2022-12-12T09:49:44.328Z,11.10
2022-12-12T09:52:29.283Z,11.78
2022-12-12T09:54:53.963Z,12.45
2022-12-12T09:57:42.690Z,13.20
2022-12-12T10:00:14.087Z,11.22
2022-12-12T10:03:26.931Z,10.65
2022-12-12T10:06:35.765Z,11.20
2022-12-12T10:09:10.379Z,13.45
2022-12-12T10:11:50.465Z,10.75
2022-12-12T10:14:34.706Z,11.60
2022-12-12T10:17:07.259Z,12.33
2022-12-12T10:19:40.455Z,12.00
2022-12-12T10:22:38.825Z,13.18
2022-12-12T10:25:23.655Z,13.93
2022-12-12T10:27:59.310Z,14.68
2022-12-12T10:30:29.314Z,14.87
2022-12-12T10:33:08.449Z,14.55
2022-12-12T10:35:41.524Z,14.95
2022-12-12T10:38:32.947Z,15.32
2022-12-12T10:41:07.563Z,16.50
2022-12-12T10:43:55.307Z,21.63
2022-12-12T10:46:52.599Z,15.95
2022-12-12T10:49:24.009Z,15.58
2022-12-12T10:51:52.857Z,13.95
2022-12-12T10:54:27.089Z,13.43
2022-12-12T10:57:21.694Z,13.18
2022-12-12T10:59:53.477Z,12.95
2022-12-12T11:02:32.414Z,13.50
2022-12-12T11:05:09.002Z,13.05
2022-12-12T11:07:42.001Z,14.83
2022-12-12T11:10:33.946Z,14.68
2022-12-12T11:13:13.672Z,14.30
2022-12-12T11:16:13.439Z,13.95
2022-12-12T11:18:40.482Z,14.73
2022-12-12T11:21:13.350Z,14.50
2022-12-12T11:23:46.376Z,12.55
2022-12-12T11:26:19.054Z,15.65
2022-12-12T11:28:57.297Z,16.97
2022-12-12T11:31:34.130Z,11.68
2022-12-12T11:34:06.058Z,12.33
2022-12-12T11:36:40.307Z,14.73
2022-12-12T11:39:22.448Z,11.88
2022-12-12T11:42:19.049Z,17.77
2022-12-12T11:45:02.419Z,15.30
2022-12-12T11:47:40.340Z,23.60
2022-12-12T11:50:24.918Z,15.38
2022-12-12T11:52:57.770Z,11.97
2022-12-12T11:55:45.986Z,11.95
2022-12-12T11:58:55.070Z,12.43
2022-12-12T12:01:48.494Z,11.80
2022-12-12T12:04:30.910Z,11.50
2022-12-12T12:07:19.078Z,14.58
2022-12-12T12:10:33.276Z,12.25
2022-12-12T12:13:18.383Z,11.15
2022-12-12T12:16:08.220Z,10.68
2022-12-12T12:19:17.549Z,11.50
2022-12-12T12:21:56.199Z,11.63
2022-12-12T12:24:38.301Z,11.68
2022-12-12T12:27:20.869Z,13.80
2022-12-12T12:30:15.401Z,12.15
2022-12-12T12:33:31.070Z,10.53
2022-12-12T12:36:24.052Z,11.08
2022-12-12T12:39:16.283Z,13.35
2022-12-12T12:41:52.122Z,11.93
2022-12-12T12:44:49.330Z,11.57
2022-12-12T12:47:48.580Z,11.78
2022-12-12T12:50:40.222Z,10.65
2022-12-12T12:53:22.863Z,11.12
2022-12-12T12:55:54.985Z,12.15
2022-12-12T12:58:27.790Z,10.55
2022-12-12T13:01:15.979Z,11.63
2022-12-12T13:03:48.986Z,10.95
2022-12-12T13:06:31.799Z,10.25
2022-12-12T13:09:27.746Z,10.72
2022-12-12T13:12:15.993Z,10.35
2022-12-12T13:14:57.088Z,10.65
2022-12-12T13:17:37.231Z,9.85
2022-12-12T13:20:10.811Z,9.43
2022-12-12T13:23:09.439Z,10.43
2022-12-12T13:26:00.243Z,10.35
2022-12-12T13:28:45.130Z,10.85
2022-12-12T13:31:56.604Z,11.93
2022-12-12T13:34:28.003Z,12.23
2022-12-12T13:36:57.251Z,12.25
2022-12-12T13:39:37.628Z,11.55
2022-12-12T13:42:11.842Z,11.68
2022-12-12T13:47:25.675Z,11.60
2022-12-12T13:50:07.444Z,12.20
2022-12-12T13:52:38.387Z,11.15
2022-12-12T13:55:17.651Z,12.13
2022-12-12T13:58:04.799Z,11.08
2022-12-12T14:00:38.510Z,12.60
2022-12-12T14:03:17.198Z,13.83
2022-12-12T14:05:48.826Z,11.73
2022-12-12T14:08:21.437Z,13.03
2022-12-12T14:11:02.765Z,14.93
2022-12-12T14:13:39.670Z,12.25
2022-12-12T14:16:21.057Z,12.70
2022-12-12T14:18:54.759Z,16.45
2022-12-12T14:21:42.578Z,13.65
2022-12-12T14:24:40.649Z,12.07
2022-12-12T14:27:10.470Z,12.05
2022-12-12T14:29:44.800Z,11.08
2022-12-12T14:32:20.693Z,10.13
2022-12-12T14:35:12.282Z,10.55
2022-12-12T14:38:12.683Z,10.23
2022-12-12T14:40:47.433Z,9.73
2022-12-12T14:43:32.382Z,9.28
2022-12-12T14:46:01.767Z,9.25
2022-12-12T14:48:32.536Z,9.70
2022-12-12T14:51:08.734Z,9.70
2022-12-12T14:53:47.203Z,8.40
2022-12-12T14:56:26.266Z,8.18
2022-12-12T14:59:02.468Z,9.00
2022-12-12T15:01:44.321Z,9.68
2022-12-12T15:04:25.063Z,67.37
2022-12-12T15:06:59.319Z,40.30
2022-12-12T15:09:34.648Z,13.93
2022-12-12T15:12:16.191Z,9.70
2022-12-12T15:14:52.197Z,9.63
2022-12-12T15:17:40.202Z,9.58
2022-12-12T15:20:19.201Z,18.90
2022-12-12T15:23:03.418Z,17.85
2022-12-12T15:25:36.207Z,14.95
2022-12-12T15:28:04.051Z,17.83
2022-12-12T15:30:39.640Z,9.90
2022-12-12T15:33:17.459Z,29.20
2022-12-12T15:35:52.284Z,21.37
2022-12-12T15:38:20.740Z,30.37
2022-12-12T15:40:56.681Z,14.98
2022-12-12T15:43:27.542Z,12.60
2022-12-12T15:46:09.218Z,12.30
2022-12-12T15:48:36.841Z,16.40
2022-12-12T15:51:06.908Z,11.05
2022-12-12T15:53:50.408Z,15.32
2022-12-12T15:56:23.004Z,10.28
2022-12-12T15:59:10.914Z,9.00
2022-12-12T16:01:38.636Z,13.58
2022-12-12T16:04:11.738Z,8.53
2022-12-12T16:06:45.417Z,9.53
2022-12-12T16:09:25.220Z,9.23
2022-12-12T16:11:58.110Z,7.37
2022-12-12T16:14:41.220Z,8.70
2022-12-12T16:17:24.349Z,9.53
2022-12-12T16:20:08.586Z,9.33
2022-12-12T16:25:28.146Z,10.10
2022-12-12T16:28:09.543Z,10.55
2022-12-12T16:30:40.924Z,10.58
2022-12-12T16:33:22.531Z,9.60
2022-12-12T16:35:50.655Z,9.40
2022-12-12T16:38:19.131Z,9.40
2022-12-12T16:40:50.299Z,10.08
2022-12-12T16:43:20.472Z,9.98
2022-12-12T16:45:53.524Z,9.85
2022-12-12T16:48:28.694Z,9.65
2022-12-12T16:51:03.955Z,10.08
2022-12-12T16:53:33.563Z,15.25
2022-12-12T16:56:03.060Z,11.28
2022-12-12T16:58:32.815Z,9.15
2022-12-12T17:01:01.200Z,5.35
2022-12-12T17:03:29.974Z,7.70
2022-12-12T17:05:58.005Z,7.60
2022-12-12T17:08:26.835Z,7.83
2022-12-12T17:11:09.587Z,6.17
2022-12-12T17:13:25.786Z,4.58
2022-12-12T17:15:55.381Z,4.58
2022-12-12T17:18:24.813Z,5.47
2022-12-12T17:20:52.404Z,5.53
2022-12-12T17:23:28.191Z,5.53
2022-12-12T17:26:02.915Z,6.10
2022-12-12T17:28:25.785Z,5.67
2022-12-12T17:30:53.603Z,5.37
2022-12-12T17:33:21.480Z,6.22
2022-12-12T17:35:59.264Z,6.03
2022-12-12T17:38:27.096Z,6.55
2022-12-12T17:40:56.265Z,7.10
2022-12-12T17:43:25.121Z,7.80
2022-12-12T17:46:02.884Z,8.25
2022-12-12T17:48:33.869Z,5.60
2022-12-12T17:51:05.236Z,5.92
2022-12-12T17:53:39.029Z,5.87
2022-12-12T17:56:16.781Z,8.00
2022-12-12T17:58:46.490Z,11.70
2022-12-12T18:01:21.941Z,15.75
2022-12-12T18:03:50.355Z,12.00
2022-12-12T18:06:20.843Z,18.80
2022-12-12T18:08:50.481Z,15.80
2022-12-12T18:11:26.685Z,13.08
2022-12-12T18:13:57.998Z,16.30
2022-12-12T18:16:28.835Z,13.30
2022-12-12T18:18:58.111Z,25.02
2022-12-12T18:24:01.757Z,9.03
2022-12-12T18:26:29.556Z,10.63
2022-12-12T18:29:01.730Z,10.43
2022-12-12T18:31:30.940Z,15.15
2022-12-12T18:33:59.073Z,33.67
2022-12-12T18:36:30.210Z,10.20
2022-12-12T18:39:00.478Z,11.80
2022-12-12T18:41:30.337Z,7.85
2022-12-12T18:43:58.294Z,6.37
2022-12-12T18:46:27.104Z,9.68
2022-12-12T18:48:56.560Z,10.08
2022-12-12T18:51:26.810Z,6.60
2022-12-12T18:54:02.119Z,6.70
2022-12-12T18:56:31.027Z,5.83
2022-12-12T18:59:00.564Z,7.20
2022-12-12T19:01:32.393Z,8.05
2022-12-12T19:04:07.347Z,8.60
2022-12-12T19:06:35.529Z,10.10
2022-12-12T19:09:16.514Z,7.10
2022-12-12T19:11:46.756Z,8.15
2022-12-12T19:14:16.047Z,7.00
2022-12-12T19:16:44.745Z,7.70
2022-12-12T19:19:13.268Z,9.75
2022-12-12T19:21:43.299Z,7.05
2022-12-12T19:24:14.000Z,6.90
2022-12-12T19:26:43.920Z,10.13
2022-12-12T19:29:16.645Z,10.08
2022-12-12T19:31:45.102Z,12.13
2022-12-12T19:34:16.475Z,6.35
2022-12-12T19:36:44.639Z,7.50
2022-12-12T19:39:13.194Z,10.98
2022-12-12T19:41:41.238Z,8.45
2022-12-12T19:44:12.342Z,9.00
2022-12-12T19:46:43.250Z,8.25
2022-12-12T19:49:16.318Z,7.95
2022-12-12T19:54:19.560Z,6.30
2022-12-12T19:56:47.433Z,9.23
2022-12-12T19:59:17.787Z,9.15
2022-12-12T20:01:46.666Z,14.30
2022-12-12T20:04:19.341Z,10.95
2022-12-12T20:06:49.160Z,11.07
2022-12-12T20:09:25.660Z,10.30
2022-12-12T20:11:54.955Z,11.00
2022-12-12T20:14:30.776Z,8.85
2022-12-12T20:16:59.434Z,8.30
2022-12-12T20:19:27.476Z,9.20
2022-12-12T20:22:03.817Z,8.40
2022-12-12T20:24:25.660Z,8.05
2022-12-12T20:26:54.955Z,11.05
2022-12-12T20:29:23.203Z,12.80
2022-12-12T20:31:51.554Z,9.50
2022-12-12T20:34:23.954Z,8.48
2022-12-12T20:36:54.041Z,8.35
2022-12-12T20:39:22.226Z,11.85
2022-12-12T20:41:50.390Z,10.00
2022-12-12T20:44:18.159Z,8.98
2022-12-12T20:46:46.510Z,14.40
2022-12-12T20:49:17.585Z,20.77
2022-12-12T20:52:00.930Z,13.13
2022-12-12T20:54:16.610Z,8.20
2022-12-12T20:56:46.355Z,10.90
2022-12-12T20:59:13.748Z,14.87
2022-12-12T21:01:41.564Z,14.18
2022-12-12T21:04:09.727Z,12.68
2022-12-12T21:06:40.706Z,13.48
2022-12-12T21:09:10.565Z,13.38
2022-12-12T21:11:38.928Z,13.72
2022-12-12T21:14:06.931Z,10.25
2022-12-12T21:16:38.248Z,8.60
2022-12-12T21:19:10.873Z,7.87
2022-12-12T21:21:40.941Z,12.98
2022-12-12T21:24:11.993Z,11.43
2022-12-12T21:26:39.694Z,28.75
2022-12-12T21:29:07.985Z,25.60
2022-12-12T21:31:46.356Z,20.57
2022-12-12T21:34:11.017Z,19.70
2022-12-12T21:36:38.661Z,20.17
2022-12-12T21:39:07.618Z,23.52
2022-12-12T21:41:35.261Z,28.05
2022-12-12T21:44:03.579Z,31.05
2022-12-12T21:46:31.222Z,31.35
2022-12-12T21:49:16.671Z,34.18
2022-12-12T21:51:44.998Z,36.83
2022-12-12T21:54:14.811Z,46.50
2022-12-12T21:56:42.839Z,53.98
2022-12-12T21:59:12.765Z,36.95
2022-12-12T22:01:41.556Z,43.70
2022-12-12T22:04:12.030Z,44.88
2022-12-12T22:06:40.140Z,37.98
2022-12-12T22:09:10.089Z,20.97
2022-12-12T22:11:40.000Z,25.17
2022-12-12T22:14:09.710Z,55.80
2022-12-12T22:16:38.263Z,71.55
2022-12-12T22:19:12.929Z,217.53
2022-12-12T22:21:41.152Z,53.00
2022-12-12T22:24:09.258Z,48.50
2022-12-12T22:26:40.709Z,33.35
2022-12-12T22:29:12.976Z,48.70
2022-12-12T22:31:42.692Z,29.50
2022-12-12T22:34:15.147Z,27.30
2022-12-12T22:36:44.635Z,29.02
2022-12-12T22:39:24.527Z,27.35
2022-12-12T22:41:52.769Z,25.60
2022-12-12T22:44:22.833Z,25.23
2022-12-12T22:46:52.924Z,25.05
2022-12-12T22:49:27.218Z,24.63
2022-12-12T22:51:57.673Z,24.87
2022-12-12T22:54:26.557Z,24.63
2022-12-12T22:56:54.187Z,25.72
2022-12-12T22:59:21.897Z,24.50
2022-12-12T23:01:49.660Z,24.15
2022-12-12T23:04:17.474Z,23.67
2022-12-12T23:06:45.324Z,24.85
2022-12-12T23:09:22.376Z,24.72
2022-12-12T23:11:49.971Z,25.95
2022-12-12T23:14:22.185Z,25.37
2022-12-12T23:16:51.282Z,25.05
2022-12-12T23:19:25.064Z,27.40
2022-12-12T23:21:52.534Z,25.75
2022-12-12T23:24:20.260Z,24.52
2022-12-12T23:26:50.943Z,26.33
2022-12-12T23:29:19.776Z,31.20
2022-12-12T23:31:47.935Z,33.88
2022-12-12T23:34:21.787Z,42.70
2022-12-12T23:36:51.878Z,32.73
2022-12-12T23:39:19.531Z,25.92
2022-12-12T23:41:47.067Z,37.83
2022-12-12T23:44:17.648Z,46.50
2022-12-12T23:46:45.681Z,46.45
2022-12-12T23:49:18.428Z,50.15
2022-12-12T23:51:52.916Z,43.05
2022-12-12T23:54:27.380Z,43.30
2022-12-12T23:56:55.550Z,34.95
2022-12-12T23:59:26.614Z,28.55
